createdAt,value
2023-02-20T00:00:37.039Z,3.05
2023-02-20T00:03:05.108Z,4.03
2023-02-20T00:05:32.087Z,3.90
2023-02-20T00:07:59.246Z,4.25
2023-02-20T00:10:27.081Z,3.67
2023-02-20T00:12:54.496Z,3.13
2023-02-20T00:15:22.075Z,3.78
2023-02-20T00:17:49.296Z,3.58
2023-02-20T00:20:23.745Z,3.78
2023-02-20T00:22:51.966Z,3.75
2023-02-20T00:25:20.518Z,4.00
2023-02-20T00:27:47.913Z,3.38
2023-02-20T00:30:24.929Z,4.63
2023-02-20T00:32:53.417Z,2.92
2023-02-20T00:35:22.180Z,4.43
2023-02-20T00:37:50.317Z,3.88
2023-02-20T00:40:20.260Z,4.47
2023-02-20T00:42:47.173Z,4.60
2023-02-20T00:45:15.876Z,4.57
2023-02-20T00:47:42.925Z,3.83
2023-02-20T00:50:10.439Z,5.85
2023-02-20T00:52:39.454Z,4.38
2023-02-20T00:55:06.707Z,5.20
2023-02-20T00:57:33.585Z,4.32
2023-02-20T01:00:00.508Z,5.45
2023-02-20T01:02:27.660Z,5.57
2023-02-20T01:04:56.637Z,4.97
2023-02-20T01:07:23.624Z,5.35
2023-02-20T01:09:50.411Z,4.97
2023-02-20T01:12:17.417Z,5.57
2023-02-20T01:14:44.235Z,5.60
2023-02-20T01:17:12.783Z,7.13
2023-02-20T01:19:39.649Z,5.63
2023-02-20T01:22:08.807Z,5.05
2023-02-20T01:24:35.781Z,5.05
2023-02-20T01:27:02.727Z,4.60
2023-02-20T01:29:30.139Z,4.30
2023-02-20T01:31:59.418Z,6.93
2023-02-20T01:34:26.512Z,5.85
2023-02-20T01:36:56.064Z,6.03
2023-02-20T01:39:28.069Z,5.95
2023-02-20T01:42:01.121Z,6.68
2023-02-20T01:44:31.914Z,5.85
2023-02-20T01:47:01.612Z,6.10
2023-02-20T01:49:36.748Z,5.45
2023-02-20T01:52:10.301Z,6.07
2023-02-20T01:54:39.888Z,5.90
2023-02-20T01:57:13.277Z,5.20
2023-02-20T01:59:41.793Z,5.22
2023-02-20T02:02:09.028Z,5.22
2023-02-20T02:04:38.858Z,5.68
2023-02-20T02:07:06.340Z,5.80
2023-02-20T02:09:52.055Z,4.55
2023-02-20T02:12:19.839Z,5.95
2023-02-20T02:14:46.629Z,5.18
2023-02-20T02:21:00.976Z,5.03
2023-02-20T02:24:05.768Z,5.53
2023-02-20T02:27:02.373Z,5.07
2023-02-20T02:29:58.606Z,5.75
2023-02-20T02:32:47.021Z,5.55
2023-02-20T02:35:32.933Z,5.63
2023-02-20T02:38:04.602Z,4.90
2023-02-20T02:41:13.283Z,4.78
2023-02-20T02:43:55.653Z,4.38
2023-02-20T02:46:47.068Z,4.88
2023-02-20T02:49:24.668Z,4.90
2023-02-20T02:51:55.617Z,5.95
2023-02-20T02:57:14.305Z,3.95
2023-02-20T02:59:42.649Z,4.40
2023-02-20T03:02:14.491Z,4.03
2023-02-20T03:04:46.065Z,4.55
2023-02-20T03:07:16.466Z,6.43
2023-02-20T03:10:00.666Z,4.15
2023-02-20T03:12:28.806Z,4.45
2023-02-20T03:15:33.925Z,4.63
2023-02-20T03:18:15.161Z,4.35
2023-02-20T03:20:45.991Z,3.92
2023-02-20T03:23:18.803Z,4.03
2023-02-20T03:25:55.361Z,4.68
2023-02-20T03:28:28.236Z,4.38
2023-02-20T03:31:04.643Z,4.35
2023-02-20T03:34:04.771Z,5.15
2023-02-20T03:37:02.488Z,6.30
2023-02-20T03:39:52.965Z,3.83
2023-02-20T03:42:40.845Z,4.95
2023-02-20T03:45:16.597Z,5.72
2023-02-20T03:47:47.657Z,6.10
2023-02-20T03:52:43.388Z,4.45
2023-02-20T03:55:10.706Z,4.25
2023-02-20T03:57:42.602Z,4.78
2023-02-20T04:00:15.460Z,6.35
2023-02-20T04:02:47.810Z,4.90
2023-02-20T04:05:25.723Z,4.90
2023-02-20T04:08:03.390Z,4.88
2023-02-20T04:10:50.864Z,4.93
2023-02-20T04:13:18.909Z,3.70
2023-02-20T04:15:49.487Z,3.07
2023-02-20T04:18:20.265Z,3.55
2023-02-20T04:20:52.603Z,3.33
2023-02-20T04:23:26.958Z,3.00
2023-02-20T04:26:11.168Z,2.95
2023-02-20T04:28:41.612Z,3.17
2023-02-20T04:31:11.208Z,2.80
2023-02-20T04:33:38.321Z,2.33
2023-02-20T04:36:12.023Z,3.10
2023-02-20T04:38:39.150Z,2.50
2023-02-20T04:41:08.278Z,2.42
2023-02-20T04:43:35.202Z,2.65
2023-02-20T04:46:02.202Z,2.10
2023-02-20T04:48:29.385Z,2.83
2023-02-20T04:50:56.529Z,3.28
2023-02-20T04:53:23.948Z,3.08
2023-02-20T04:55:51.295Z,2.90
2023-02-20T04:58:21.321Z,2.70
2023-02-20T05:01:04.608Z,3.47
2023-02-20T05:03:31.420Z,3.60
2023-02-20T05:05:58.176Z,3.17
2023-02-20T05:08:25.007Z,3.65
2023-02-20T05:10:51.849Z,3.22
2023-02-20T05:13:18.679Z,4.13
2023-02-20T05:15:45.494Z,4.28
2023-02-20T05:18:12.370Z,3.30
2023-02-20T05:20:58.068Z,3.35
2023-02-20T05:23:24.929Z,3.05
2023-02-20T05:25:53.892Z,3.95
2023-02-20T05:28:20.686Z,3.58
2023-02-20T05:30:47.561Z,4.20
2023-02-20T05:33:14.493Z,4.18
2023-02-20T05:35:41.758Z,3.78
2023-02-20T05:38:08.655Z,4.22
2023-02-20T05:40:35.533Z,2.80
2023-02-20T05:43:02.400Z,4.10
2023-02-20T05:45:29.236Z,4.70
2023-02-20T05:47:56.050Z,5.40
2023-02-20T05:50:22.824Z,4.82
2023-02-20T05:52:49.640Z,4.63
2023-02-20T05:55:16.538Z,5.43
2023-02-20T05:57:43.332Z,6.22
2023-02-20T06:00:11.482Z,4.75
2023-02-20T06:02:41.226Z,4.93
2023-02-20T06:05:08.330Z,4.70
2023-02-20T06:07:35.983Z,6.22
2023-02-20T06:10:04.026Z,5.57
2023-02-20T06:12:31.003Z,5.03
2023-02-20T06:14:57.834Z,5.70
2023-02-20T06:17:24.670Z,5.57
2023-02-20T06:19:51.462Z,6.32
2023-02-20T06:22:19.408Z,5.05
2023-02-20T06:24:47.401Z,5.07
2023-02-20T06:27:15.819Z,5.97
2023-02-20T06:29:42.854Z,7.47
2023-02-20T06:32:10.106Z,7.78
2023-02-20T06:34:36.982Z,5.70
2023-02-20T06:37:04.778Z,6.53
2023-02-20T06:39:32.814Z,7.28
2023-02-20T06:41:59.560Z,6.85
2023-02-20T06:44:26.418Z,7.78
2023-02-20T06:46:53.299Z,6.20
2023-02-20T06:49:20.201Z,8.00
2023-02-20T06:51:47.033Z,7.97
2023-02-20T06:54:14.275Z,7.00
2023-02-20T06:56:41.048Z,7.40
2023-02-20T06:59:09.220Z,6.40
2023-02-20T07:01:41.555Z,5.85
2023-02-20T07:04:27.774Z,5.22
2023-02-20T07:06:55.443Z,6.53
2023-02-20T07:09:22.242Z,8.00
2023-02-20T07:11:50.569Z,5.63
2023-02-20T07:14:17.589Z,7.90
2023-02-20T07:16:44.490Z,7.20
2023-02-20T07:19:11.681Z,8.10
2023-02-20T07:21:38.970Z,7.22
2023-02-20T07:24:06.584Z,6.13
2023-02-20T07:26:34.075Z,6.43
2023-02-20T07:29:01.126Z,9.02
2023-02-20T07:31:28.374Z,5.60
2023-02-20T07:33:55.304Z,7.18
2023-02-20T07:36:22.162Z,7.55
2023-02-20T07:39:00.962Z,6.72
2023-02-20T07:41:31.481Z,6.80
2023-02-20T07:43:58.810Z,6.93
2023-02-20T07:46:25.797Z,7.85
2023-02-20T07:48:53.209Z,4.88
2023-02-20T07:51:20.149Z,5.55
2023-02-20T07:53:50.990Z,6.55
2023-02-20T07:56:19.786Z,5.63
2023-02-20T07:58:47.118Z,5.28
2023-02-20T08:01:14.406Z,4.55
2023-02-20T08:03:41.282Z,4.63
2023-02-20T08:06:08.173Z,4.85
2023-02-20T08:08:35.254Z,3.08
2023-02-20T08:11:09.710Z,6.97
2023-02-20T08:13:37.825Z,5.53
2023-02-20T08:16:04.927Z,4.03
2023-02-20T08:18:31.805Z,4.90
2023-02-20T08:20:58.597Z,3.72
2023-02-20T08:23:25.906Z,3.50
2023-02-20T08:25:53.048Z,5.60
2023-02-20T08:28:21.148Z,4.43
2023-02-20T08:30:48.213Z,2.75
2023-02-20T08:33:15.453Z,2.80
2023-02-20T08:35:42.603Z,4.78
2023-02-20T08:38:28.513Z,4.43
2023-02-20T08:40:55.977Z,3.47
2023-02-20T08:43:23.322Z,5.07
2023-02-20T08:45:50.571Z,3.35
2023-02-20T08:48:17.622Z,4.10
2023-02-20T08:50:46.933Z,3.78
2023-02-20T08:53:15.488Z,2.92
2023-02-20T08:55:42.770Z,3.22
2023-02-20T08:58:10.207Z,3.65
2023-02-20T09:00:37.054Z,3.80
2023-02-20T09:03:07.320Z,3.40
2023-02-20T09:05:35.585Z,2.97
2023-02-20T09:08:03.788Z,3.58
2023-02-20T09:10:31.419Z,2.60
2023-02-20T09:12:58.338Z,2.10
2023-02-20T09:15:26.038Z,2.30
2023-02-20T09:17:53.433Z,2.90
2023-02-20T09:20:22.475Z,2.78
2023-02-20T09:22:50.532Z,2.50
2023-02-20T09:25:18.633Z,2.95
2023-02-20T09:27:45.463Z,1.90
2023-02-20T09:30:20.203Z,2.25
2023-02-20T09:32:48.323Z,2.97
2023-02-20T09:35:19.030Z,2.25
2023-02-20T09:37:46.201Z,2.15
2023-02-20T09:40:14.581Z,3.10
2023-02-20T09:42:54.345Z,2.13
2023-02-20T09:45:25.785Z,3.00
2023-02-20T09:48:13.786Z,5.03
2023-02-20T09:50:56.682Z,3.42
2023-02-20T09:53:26.568Z,2.72
2023-02-20T09:55:54.898Z,2.50
2023-02-20T09:58:52.027Z,2.45
2023-02-20T10:01:22.388Z,2.40
2023-02-20T10:04:00.740Z,2.05
2023-02-20T10:06:33.342Z,2.83
2023-02-20T10:09:02.358Z,2.55
2023-02-20T10:11:50.678Z,2.65
2023-02-20T10:14:44.521Z,2.60
2023-02-20T10:17:29.315Z,1.92
2023-02-20T10:20:17.949Z,2.22
2023-02-20T10:22:54.470Z,2.55
2023-02-20T10:25:35.811Z,3.08
2023-02-20T10:28:18.628Z,2.97
2023-02-20T10:31:02.685Z,2.78
2023-02-20T10:33:45.946Z,2.28
2023-02-20T10:36:21.090Z,2.25
2023-02-20T10:39:01.835Z,2.30
2023-02-20T10:41:54.630Z,2.75
2023-02-20T10:44:37.568Z,2.80
2023-02-20T10:47:24.749Z,2.35
2023-02-20T10:49:57.593Z,2.75
2023-02-20T10:52:34.682Z,2.65
2023-02-20T10:55:01.801Z,2.67
2023-02-20T10:57:30.904Z,2.22
2023-02-20T11:00:16.188Z,2.65
2023-02-20T11:02:57.791Z,2.38
2023-02-20T11:05:34.160Z,2.30
2023-02-20T11:08:01.224Z,2.38
2023-02-20T11:10:28.034Z,1.98
2023-02-20T11:13:00.366Z,2.47
2023-02-20T11:15:31.094Z,2.45
2023-02-20T11:17:59.860Z,1.85
2023-02-20T11:20:32.786Z,2.22
2023-02-20T11:23:01.468Z,2.33
2023-02-20T11:25:37.212Z,2.65
2023-02-20T11:28:23.009Z,1.65
2023-02-20T11:31:05.013Z,2.30
2023-02-20T11:33:37.364Z,1.98
2023-02-20T11:36:20.617Z,1.73
2023-02-20T11:38:49.087Z,2.53
2023-02-20T11:41:25.868Z,1.75
2023-02-20T11:44:11.182Z,2.20
2023-02-20T11:46:38.330Z,2.22
2023-02-20T11:49:31.602Z,2.42
2023-02-20T11:52:17.090Z,2.10
2023-02-20T11:54:45.873Z,2.17
2023-02-20T11:57:15.987Z,1.65
2023-02-20T11:59:44.940Z,2.30
2023-02-20T12:02:25.114Z,2.03
2023-02-20T12:05:12.671Z,2.10
2023-02-20T12:07:43.357Z,2.00
2023-02-20T12:10:41.197Z,2.13
2023-02-20T12:13:14.189Z,2.22
2023-02-20T12:15:41.911Z,1.60
2023-02-20T12:18:17.180Z,2.50
2023-02-20T12:20:53.994Z,1.95
2023-02-20T12:23:32.019Z,2.17
2023-02-20T12:26:21.424Z,2.08
2023-02-20T12:29:10.078Z,2.05
2023-02-20T12:32:11.733Z,1.67
2023-02-20T12:35:10.327Z,1.60
2023-02-20T12:38:06.561Z,1.63
2023-02-20T12:40:48.663Z,1.95
2023-02-20T12:43:27.525Z,2.03
2023-02-20T12:46:06.682Z,1.70
2023-02-20T12:49:01.473Z,1.60
2023-02-20T12:51:52.007Z,1.70
2023-02-20T12:54:21.711Z,2.03
2023-02-20T12:57:18.420Z,2.22
2023-02-20T12:59:59.261Z,1.77
2023-02-20T13:02:51.108Z,2.00
2023-02-20T13:05:24.899Z,2.22
2023-02-20T13:07:52.805Z,2.08
2023-02-20T13:10:24.118Z,1.95
2023-02-20T13:12:52.827Z,2.72
2023-02-20T13:15:31.785Z,1.83
2023-02-20T13:18:17.996Z,3.00
2023-02-20T13:20:49.669Z,1.60
2023-02-20T13:23:16.505Z,2.83
2023-02-20T13:25:47.214Z,2.03
2023-02-20T13:28:37.459Z,2.28
2023-02-20T13:31:10.450Z,2.47
2023-02-20T13:33:38.441Z,1.80
2023-02-20T13:36:15.007Z,1.85
2023-02-20T13:38:41.928Z,2.03
2023-02-20T13:41:09.832Z,2.33
2023-02-20T13:43:40.509Z,2.58
2023-02-20T13:46:07.391Z,2.17
2023-02-20T13:48:34.225Z,1.85
2023-02-20T13:51:16.506Z,2.05
2023-02-20T13:54:14.080Z,1.85
2023-02-20T13:56:43.678Z,1.98
2023-02-20T13:59:14.976Z,2.15
2023-02-20T14:02:21.537Z,1.80
2023-02-20T14:04:56.358Z,2.33
2023-02-20T14:07:37.236Z,1.45
2023-02-20T14:10:09.626Z,2.30
2023-02-20T14:12:38.237Z,1.77
2023-02-20T14:15:06.960Z,2.47
2023-02-20T14:17:39.403Z,2.45
2023-02-20T14:20:15.555Z,2.25
2023-02-20T14:22:42.401Z,2.33
2023-02-20T14:25:11.988Z,3.25
2023-02-20T14:27:40.606Z,2.78
2023-02-20T14:30:21.180Z,2.03
2023-02-20T14:32:56.482Z,2.88
2023-02-20T14:35:33.071Z,2.13
2023-02-20T14:38:34.424Z,2.47
2023-02-20T14:43:37.691Z,2.40
2023-02-20T14:46:07.546Z,2.90
2023-02-20T14:48:40.952Z,2.70
2023-02-20T14:51:14.121Z,2.65
2023-02-20T14:53:43.048Z,2.55
2023-02-20T14:56:17.378Z,2.75
2023-02-20T14:58:46.097Z,3.13
2023-02-20T15:01:36.022Z,3.10
2023-02-20T15:04:10.738Z,2.55
2023-02-20T15:06:40.064Z,3.00
2023-02-20T15:09:21.401Z,3.00
2023-02-20T15:11:59.175Z,3.53
2023-02-20T15:14:28.902Z,3.38
2023-02-20T15:17:20.391Z,3.53
2023-02-20T15:19:47.780Z,3.53
2023-02-20T15:22:40.839Z,3.22
2023-02-20T15:25:15.421Z,3.35
2023-02-20T15:28:13.306Z,3.80
2023-02-20T15:31:02.059Z,4.15
2023-02-20T15:33:31.173Z,3.83
2023-02-20T15:35:58.924Z,4.00
2023-02-20T15:38:33.261Z,4.10
2023-02-20T15:41:02.253Z,4.35
2023-02-20T15:43:45.238Z,4.30
2023-02-20T15:46:14.539Z,4.57
2023-02-20T15:48:42.724Z,5.60
2023-02-20T15:51:11.137Z,4.20
2023-02-20T15:53:38.607Z,5.00
2023-02-20T15:56:05.931Z,7.30
2023-02-20T15:58:37.266Z,4.85
2023-02-20T16:01:05.106Z,5.32
2023-02-20T16:03:41.802Z,5.28
2023-02-20T16:06:16.576Z,6.10
2023-02-20T16:08:44.445Z,5.07
2023-02-20T16:11:12.089Z,5.43
2023-02-20T16:13:40.754Z,4.97
2023-02-20T16:16:35.951Z,5.28
2023-02-20T16:19:11.570Z,4.53
2023-02-20T16:21:42.806Z,5.47
2023-02-20T16:24:15.175Z,5.40
2023-02-20T16:26:46.284Z,5.25
2023-02-20T16:29:31.482Z,5.47
2023-02-20T16:32:01.528Z,4.78
2023-02-20T16:34:33.623Z,5.43
2023-02-20T16:37:01.423Z,5.95
2023-02-20T16:39:28.274Z,5.80
2023-02-20T16:41:57.991Z,5.65
2023-02-20T16:44:30.789Z,5.78
2023-02-20T16:46:57.826Z,6.03
2023-02-20T16:49:26.657Z,6.15
2023-02-20T16:52:01.265Z,6.63
2023-02-20T16:54:28.758Z,5.43
2023-02-20T16:56:55.830Z,6.43
2023-02-20T16:59:22.826Z,5.50
2023-02-20T17:01:51.593Z,6.30
2023-02-20T17:04:19.727Z,5.90
2023-02-20T17:06:47.024Z,7.18
2023-02-20T17:09:13.906Z,5.32
2023-02-20T17:11:40.827Z,7.20
2023-02-20T17:14:07.860Z,6.15
2023-02-20T17:16:34.734Z,5.32
2023-02-20T17:19:01.671Z,4.45
2023-02-20T17:21:28.498Z,6.15
2023-02-20T17:23:55.371Z,5.72
2023-02-20T17:26:22.271Z,7.70
2023-02-20T17:28:49.053Z,6.15
2023-02-20T17:31:16.185Z,6.35
2023-02-20T17:33:43.332Z,6.03
2023-02-20T17:36:10.562Z,6.03
2023-02-20T17:38:41.343Z,6.53
2023-02-20T17:41:08.284Z,6.30
2023-02-20T17:43:36.072Z,7.10
2023-02-20T17:46:03.184Z,5.70
2023-02-20T17:48:29.963Z,5.93
2023-02-20T17:50:56.970Z,5.40
2023-02-20T17:53:23.770Z,5.40
2023-02-20T17:55:50.673Z,4.28
2023-02-20T17:58:17.511Z,4.53
2023-02-20T18:00:45.512Z,6.28
2023-02-20T18:03:12.296Z,5.13
2023-02-20T18:05:39.154Z,5.20
2023-02-20T18:08:05.962Z,6.25
2023-02-20T18:10:32.812Z,5.55
2023-02-20T18:13:03.084Z,5.25
2023-02-20T18:15:35.519Z,4.88
2023-02-20T18:18:03.642Z,4.85
2023-02-20T18:20:30.810Z,5.20
2023-02-20T18:22:58.514Z,5.93
2023-02-20T18:25:39.039Z,5.22
2023-02-20T18:28:07.044Z,6.50
2023-02-20T18:30:34.810Z,6.65
2023-02-20T18:33:02.179Z,4.47
2023-02-20T18:35:29.106Z,5.60
2023-02-20T18:37:56.312Z,4.85
2023-02-20T18:40:24.086Z,6.03
2023-02-20T18:42:51.559Z,5.93
2023-02-20T18:45:19.024Z,6.15
2023-02-20T18:47:53.193Z,5.85
2023-02-20T18:50:20.945Z,5.18
2023-02-20T18:52:49.021Z,5.80
2023-02-20T18:55:20.445Z,5.20
2023-02-20T18:57:48.680Z,4.85
2023-02-20T19:00:24.480Z,4.60
2023-02-20T19:02:53.106Z,6.20
2023-02-20T19:05:20.885Z,4.50
2023-02-20T19:07:48.378Z,4.50
2023-02-20T19:10:20.178Z,5.20
2023-02-20T19:12:47.086Z,4.05
2023-02-20T19:15:14.978Z,4.57
2023-02-20T19:17:45.031Z,5.35
2023-02-20T19:20:29.016Z,4.17
2023-02-20T19:22:56.890Z,3.63
2023-02-20T19:25:23.815Z,5.78
2023-02-20T19:27:51.042Z,4.07
2023-02-20T19:30:20.890Z,3.42
2023-02-20T19:32:48.428Z,5.47
2023-02-20T19:35:18.426Z,3.78
2023-02-20T19:37:45.324Z,5.35
2023-02-20T19:40:12.346Z,5.90
2023-02-20T19:42:40.801Z,5.50
2023-02-20T19:45:08.072Z,5.47
2023-02-20T19:47:35.200Z,5.13
2023-02-20T19:50:03.493Z,5.25
2023-02-20T19:52:30.280Z,3.83
2023-02-20T19:54:57.055Z,4.72
2023-02-20T19:57:24.343Z,5.05
2023-02-20T19:59:52.945Z,4.68
2023-02-20T20:02:24.066Z,5.57
2023-02-20T20:04:52.059Z,5.75
2023-02-20T20:07:18.869Z,5.70
2023-02-20T20:09:46.144Z,4.93
2023-02-20T20:12:31.511Z,4.20
2023-02-20T20:14:58.487Z,4.53
2023-02-20T20:17:25.375Z,5.25
2023-02-20T20:20:00.401Z,3.95
2023-02-20T20:22:31.162Z,4.13
2023-02-20T20:24:58.663Z,3.70
2023-02-20T20:27:25.416Z,5.35
2023-02-20T20:29:52.522Z,4.40
2023-02-20T20:32:21.642Z,4.10
2023-02-20T20:34:54.916Z,4.10
2023-02-20T20:37:25.265Z,3.42
2023-02-20T20:39:53.613Z,4.03
2023-02-20T20:42:25.174Z,5.45
2023-02-20T20:44:57.363Z,4.60
2023-02-20T20:47:29.230Z,4.10
2023-02-20T20:49:58.490Z,5.28
2023-02-20T20:52:26.700Z,6.15
2023-02-20T20:54:55.705Z,4.60
2023-02-20T20:57:25.757Z,4.22
2023-02-20T20:59:54.800Z,3.60
2023-02-20T21:02:22.547Z,3.95
2023-02-20T21:04:52.864Z,5.38
2023-02-20T21:07:22.431Z,4.22
2023-02-20T21:09:49.167Z,4.22
2023-02-20T21:12:16.490Z,4.43
2023-02-20T21:14:43.790Z,3.13
2023-02-20T21:17:12.551Z,3.20
2023-02-20T21:19:40.948Z,3.58
2023-02-20T21:22:07.793Z,3.15
2023-02-20T21:24:36.411Z,3.88
2023-02-20T21:27:04.553Z,3.38
2023-02-20T21:29:32.225Z,4.45
2023-02-20T21:31:59.182Z,4.30
2023-02-20T21:34:27.395Z,3.70
2023-02-20T21:36:54.479Z,3.90
2023-02-20T21:39:22.925Z,4.15
2023-02-20T21:42:09.763Z,4.63
2023-02-20T21:44:39.070Z,5.03
2023-02-20T21:47:10.001Z,4.75
2023-02-20T21:52:05.493Z,4.07
2023-02-20T21:54:33.513Z,3.10
2023-02-20T21:57:00.938Z,4.97
2023-02-20T21:59:27.778Z,5.70
2023-02-20T22:01:54.677Z,3.72
2023-02-20T22:04:22.209Z,5.85
2023-02-20T22:07:08.113Z,4.90
2023-02-20T22:09:53.582Z,3.70
2023-02-20T22:12:39.567Z,4.43
2023-02-20T22:15:25.741Z,5.93
2023-02-20T22:18:11.687Z,5.40
2023-02-20T22:20:57.009Z,4.50
2023-02-20T22:23:42.353Z,3.55
2023-02-20T22:26:27.973Z,4.53
2023-02-20T22:29:13.388Z,4.75
2023-02-20T22:31:58.995Z,4.07
2023-02-20T22:34:44.838Z,4.97
2023-02-20T22:37:30.080Z,5.38
2023-02-20T22:40:15.822Z,3.90
2023-02-20T22:43:01.154Z,4.55
2023-02-20T22:45:46.419Z,4.03
2023-02-20T22:48:31.918Z,4.95
2023-02-20T22:51:17.584Z,5.20
2023-02-20T22:54:06.538Z,4.57
2023-02-20T22:56:52.450Z,3.78
2023-02-20T22:59:37.784Z,4.55
2023-02-20T23:02:23.390Z,3.95
2023-02-20T23:05:08.595Z,4.38
2023-02-20T23:07:54.017Z,4.30
2023-02-20T23:10:39.282Z,5.63
2023-02-20T23:13:25.607Z,3.65
2023-02-20T23:16:11.028Z,4.28
2023-02-20T23:18:56.443Z,4.38
2023-02-20T23:21:41.732Z,4.35
2023-02-20T23:24:26.919Z,3.95
2023-02-20T23:27:13.873Z,5.43
2023-02-20T23:29:59.833Z,3.30
2023-02-20T23:32:45.593Z,4.45
2023-02-20T23:35:31.413Z,4.43
2023-02-20T23:38:17.395Z,4.07
2023-02-20T23:41:02.967Z,4.97
2023-02-20T23:43:49.245Z,3.72
2023-02-20T23:46:35.069Z,4.13
2023-02-20T23:49:20.392Z,4.60
2023-02-20T23:52:15.889Z,3.90
2023-02-20T23:55:02.649Z,4.35
2023-02-20T23:57:48.712Z,5.22
